createdAt,value
2024-04-25T00:01:53.683Z,1005.8
2024-04-25T00:04:53.977Z,1005.8
2024-04-25T00:07:53.122Z,1005.8
2024-04-25T00:10:53.398Z,1005.7
2024-04-25T00:13:53.325Z,1005.7
2024-04-25T00:16:53.186Z,1005.6
2024-04-25T00:19:53.418Z,1005.6
2024-04-25T00:22:53.209Z,1005.6
2024-04-25T00:25:53.291Z,1005.6
2024-04-25T00:28:53.219Z,1005.5
2024-04-25T00:31:53.354Z,1005.5
2024-04-25T00:34:53.653Z,1005.5
2024-04-25T00:37:53.195Z,1005.5
2024-04-25T00:40:53.111Z,1005.5
2024-04-25T00:43:53.105Z,1005.5
2024-04-25T00:46:53.352Z,1005.5
2024-04-25T00:49:53.652Z,1005.5
2024-04-25T00:52:52.978Z,1005.5
2024-04-25T00:55:53.143Z,1005.3
2024-04-25T00:58:53.215Z,1005.3
2024-04-25T01:01:53.448Z,1005.3
2024-04-25T01:04:53.435Z,1005.3
2024-04-25T01:07:53.228Z,1005.3
2024-04-25T01:10:53.125Z,1005.3
2024-04-25T01:13:53.581Z,1005.3
2024-04-25T01:16:53.217Z,1005.3
2024-04-25T01:19:53.395Z,1005.4
2024-04-25T01:22:53.164Z,1005.3
2024-04-25T01:25:53.048Z,1005.3
2024-04-25T01:28:53.071Z,1005.2
2024-04-25T01:31:53.330Z,1005.2
2024-04-25T01:34:53.913Z,1005.2
2024-04-25T01:37:53.043Z,1005.1
2024-04-25T01:40:53.290Z,1005.0
2024-04-25T01:43:53.235Z,1005.0
2024-04-25T01:46:53.337Z,1004.9
2024-04-25T01:49:54.167Z,1004.9
2024-04-25T01:52:53.141Z,1004.9
2024-04-25T01:55:53.279Z,1004.9
2024-04-25T01:58:53.245Z,1004.8
2024-04-25T02:01:53.681Z,1004.8
2024-04-25T02:04:53.506Z,1004.8
2024-04-25T02:07:53.275Z,1004.8
2024-04-25T02:10:53.149Z,1004.8
2024-04-25T02:13:53.925Z,1004.8
2024-04-25T02:16:53.399Z,1004.8
2024-04-25T02:19:53.653Z,1004.8
2024-04-25T02:22:53.108Z,1004.8
2024-04-25T02:25:53.572Z,1004.7
2024-04-25T02:28:53.138Z,1004.7
2024-04-25T02:31:53.732Z,1004.7
2024-04-25T02:34:53.478Z,1004.7
2024-04-25T02:37:53.065Z,1004.7
2024-04-25T02:40:53.303Z,1004.7
2024-04-25T02:43:53.573Z,1004.7
2024-04-25T02:46:53.345Z,1004.7
2024-04-25T02:49:53.763Z,1004.6
2024-04-25T02:52:53.605Z,1004.6
2024-04-25T02:55:53.418Z,1004.6
2024-04-25T02:58:53.284Z,1004.5
2024-04-25T03:01:53.810Z,1004.5
2024-04-25T03:04:53.887Z,1004.5
2024-04-25T03:07:53.184Z,1004.5
2024-04-25T03:10:53.284Z,1004.5
2024-04-25T03:13:56.940Z,1004.5
2024-04-25T03:16:53.223Z,1004.5
2024-04-25T03:19:53.942Z,1004.5
2024-04-25T03:22:53.066Z,1004.5
2024-04-25T03:25:57.987Z,1004.4
2024-04-25T03:28:53.269Z,1004.4
2024-04-25T03:31:54.092Z,1004.4
2024-04-25T03:34:53.598Z,1004.4
2024-04-25T03:37:53.209Z,1004.3
2024-04-25T03:40:53.522Z,1004.3
2024-04-25T03:43:53.185Z,1004.3
2024-04-25T03:46:53.512Z,1004.3
2024-04-25T03:49:54.093Z,1004.3
2024-04-25T03:52:53.199Z,1004.3
2024-04-25T03:55:53.363Z,1004.3
2024-04-25T03:58:53.192Z,1004.3
2024-04-25T04:01:53.440Z,1004.3
2024-04-25T04:04:53.660Z,1004.3
2024-04-25T04:07:53.241Z,1004.2
2024-04-25T04:10:53.269Z,1004.2
2024-04-25T04:13:53.334Z,1004.2
2024-04-25T04:16:57.671Z,1004.2
2024-04-25T04:19:53.345Z,1004.2
2024-04-25T04:22:53.180Z,1004.2
2024-04-25T04:25:53.152Z,1004.2
2024-04-25T04:28:53.215Z,1004.2
2024-04-25T04:31:53.296Z,1004.2
2024-04-25T04:34:55.165Z,1004.2
2024-04-25T04:37:53.216Z,1004.2
2024-04-25T04:40:53.581Z,1004.2
2024-04-25T04:43:53.280Z,1004.2
2024-04-25T04:46:53.588Z,1004.2
2024-04-25T04:50:03.855Z,1004.1
2024-04-25T04:52:52.970Z,1004.1
2024-04-25T04:55:53.172Z,1004.1
2024-04-25T04:58:53.259Z,1004.1
2024-04-25T05:01:53.593Z,1004.1
2024-04-25T05:04:53.700Z,1004.1
2024-04-25T05:07:53.284Z,1004.1
2024-04-25T05:10:53.443Z,1004.2
2024-04-25T05:13:53.375Z,1004.2
2024-04-25T05:16:53.568Z,1004.2
2024-04-25T05:19:53.359Z,1004.2
2024-04-25T05:22:53.031Z,1004.2
2024-04-25T05:25:53.052Z,1004.2
2024-04-25T05:28:53.612Z,1004.2
2024-04-25T05:31:53.394Z,1004.1
2024-04-25T05:34:53.910Z,1004.1
2024-04-25T05:37:53.112Z,1004.1
2024-04-25T05:40:53.298Z,1004.2
2024-04-25T05:43:53.303Z,1004.1
2024-04-25T05:46:53.468Z,1004.1
2024-04-25T05:49:53.738Z,1004.0
2024-04-25T05:52:53.168Z,1004.0
2024-04-25T05:55:53.283Z,1004.0
2024-04-25T05:58:53.168Z,1004.0
2024-04-25T06:01:53.706Z,1004.0
2024-04-25T06:04:58.048Z,1004.0
2024-04-25T06:07:53.098Z,1004.0
2024-04-25T06:10:53.752Z,1004.0
2024-04-25T06:13:54.159Z,1004.0
2024-04-25T06:16:53.580Z,1004.0
2024-04-25T06:19:53.590Z,1004.0
2024-04-25T06:22:53.146Z,1004.0
2024-04-25T06:25:53.996Z,1004.0
2024-04-25T06:28:54.237Z,1004.0
2024-04-25T06:31:53.619Z,1004.0
2024-04-25T06:34:53.812Z,1004.1
2024-04-25T06:37:53.036Z,1004.1
2024-04-25T06:40:53.222Z,1004.1
2024-04-25T06:43:53.458Z,1004.0
2024-04-25T06:46:53.916Z,1004.0
2024-04-25T06:49:57.526Z,1004.0
2024-04-25T06:52:53.193Z,1004.0
2024-04-25T06:55:53.218Z,1003.9
2024-04-25T06:58:53.225Z,1003.9
2024-04-25T07:01:53.494Z,1003.9
2024-04-25T07:04:54.668Z,1003.9
2024-04-25T07:07:53.075Z,1003.8
2024-04-25T07:10:53.145Z,1003.8
2024-04-25T07:13:53.097Z,1003.8
2024-04-25T07:16:53.256Z,1003.8
2024-04-25T07:19:53.727Z,1003.8
2024-04-25T07:22:53.122Z,1003.8
2024-04-25T07:25:56.212Z,1003.7
2024-04-25T07:28:53.057Z,1003.7
2024-04-25T07:31:53.567Z,1003.7
2024-04-25T07:34:54.267Z,1003.7
2024-04-25T07:37:53.192Z,1003.6
2024-04-25T07:40:57.619Z,1003.6
2024-04-25T07:43:53.196Z,1003.6
2024-04-25T07:46:53.513Z,1003.6
2024-04-25T07:49:54.309Z,1003.6
2024-04-25T07:52:53.107Z,1003.6
2024-04-25T07:55:53.126Z,1003.6
2024-04-25T07:58:53.177Z,1003.6
2024-04-25T08:01:53.621Z,1003.6
2024-04-25T08:04:54.105Z,1003.6
2024-04-25T08:07:53.159Z,1003.6
2024-04-25T08:10:53.241Z,1003.6
2024-04-25T08:13:53.355Z,1003.6
2024-04-25T08:16:53.512Z,1003.6
2024-04-25T08:19:53.597Z,1003.5
2024-04-25T08:22:53.400Z,1003.5
2024-04-25T08:25:53.333Z,1003.5
2024-04-25T08:28:53.336Z,1003.5
2024-04-25T08:31:53.383Z,1003.5
2024-04-25T08:34:54.327Z,1003.5
2024-04-25T08:37:53.102Z,1003.5
2024-04-25T08:40:53.990Z,1003.5
2024-04-25T08:43:53.047Z,1003.5
2024-04-25T08:46:53.400Z,1003.5
2024-04-25T08:49:53.647Z,1003.4
2024-04-25T08:52:53.322Z,1003.4
2024-04-25T08:55:53.686Z,1003.4
2024-04-25T08:58:53.178Z,1003.4
2024-04-25T09:01:53.483Z,1003.4
2024-04-25T09:04:53.953Z,1003.3
2024-04-25T09:07:53.078Z,1003.4
2024-04-25T09:10:53.277Z,1003.4
2024-04-25T09:13:53.603Z,1003.4
2024-04-25T09:16:53.632Z,1003.4
2024-04-25T09:19:53.382Z,1003.4
2024-04-25T09:22:53.286Z,1003.4
2024-04-25T09:25:53.366Z,1003.3
2024-04-25T09:28:58.770Z,1003.3
2024-04-25T09:31:53.114Z,1003.2
2024-04-25T09:34:54.176Z,1003.2
2024-04-25T09:37:53.230Z,1003.1
2024-04-25T09:41:07.198Z,1003.1
2024-04-25T09:43:53.089Z,1003.1
2024-04-25T09:46:54.175Z,1003.0
2024-04-25T09:49:53.627Z,1003.0
2024-04-25T09:52:53.101Z,1003.0
2024-04-25T09:55:53.188Z,1003.0
2024-04-25T09:58:53.300Z,1003.0
2024-04-25T10:01:53.589Z,1003.0
2024-04-25T10:04:53.662Z,1003.0
2024-04-25T10:07:53.244Z,1002.9
2024-04-25T10:10:53.440Z,1002.9
2024-04-25T10:13:53.595Z,1002.9
2024-04-25T10:16:53.326Z,1003.0
2024-04-25T10:19:54.120Z,1003.0
2024-04-25T10:22:56.612Z,1003.0
2024-04-25T10:25:53.339Z,1003.0
2024-04-25T10:28:55.371Z,1003.0
2024-04-25T10:31:53.433Z,1003.1
2024-04-25T10:34:57.347Z,1003.0
2024-04-25T10:37:53.519Z,1003.0
2024-04-25T10:41:01.288Z,1002.9
2024-04-25T10:43:54.479Z,1002.9
2024-04-25T10:46:53.560Z,1002.8
2024-04-25T10:49:54.939Z,1002.7
2024-04-25T10:52:53.175Z,1002.7
2024-04-25T10:55:54.859Z,1002.6
2024-04-25T10:58:53.372Z,1002.6
2024-04-25T11:01:54.639Z,1002.6
2024-04-25T11:04:53.775Z,1002.6
2024-04-25T11:07:55.382Z,1002.6
2024-04-25T11:10:53.291Z,1002.5
2024-04-25T11:13:53.500Z,1002.5
2024-04-25T11:16:53.388Z,1002.5
2024-04-25T11:20:22.607Z,1002.4
2024-04-25T11:25:53.608Z,1002.4
2024-04-25T11:28:53.124Z,1002.4
2024-04-25T11:31:54.564Z,1002.3
2024-04-25T11:34:54.133Z,1002.3
2024-04-25T11:37:53.144Z,1002.3
2024-04-25T11:40:53.087Z,1002.3
2024-04-25T11:43:53.034Z,1002.2
2024-04-25T11:46:56.340Z,1002.2
2024-04-25T11:49:53.986Z,1002.2
2024-04-25T11:52:57.751Z,1002.2
2024-04-25T11:55:52.988Z,1002.2
2024-04-25T11:58:53.333Z,1002.2
2024-04-25T12:01:54.598Z,1002.2
2024-04-25T12:04:53.316Z,1002.1
2024-04-25T12:07:53.091Z,1002.1
2024-04-25T12:10:53.053Z,1002.0
2024-04-25T12:13:53.484Z,1002.0
2024-04-25T12:16:56.759Z,1001.9
2024-04-25T12:19:53.822Z,1001.9
2024-04-25T12:22:53.070Z,1001.9
2024-04-25T12:25:53.011Z,1001.9
2024-04-25T12:28:52.877Z,1001.8
2024-04-25T12:31:53.094Z,1001.8
2024-04-25T12:34:54.783Z,1001.8
2024-04-25T12:37:52.914Z,1001.8
2024-04-25T12:40:53.026Z,1001.7
2024-04-25T12:43:52.931Z,1001.7
2024-04-25T12:46:55.445Z,1001.6
2024-04-25T12:49:54.008Z,1001.6
2024-04-25T12:52:53.037Z,1001.6
2024-04-25T12:55:52.901Z,1001.5
2024-04-25T12:58:52.930Z,1001.4
2024-04-25T13:01:53.984Z,1001.3
2024-04-25T13:04:53.336Z,1001.3
2024-04-25T13:07:53.109Z,1001.3
2024-04-25T13:10:53.273Z,1001.3
2024-04-25T13:13:53.232Z,1001.2
2024-04-25T13:16:53.445Z,1001.2
2024-04-25T13:19:55.326Z,1001.2
2024-04-25T13:22:56.563Z,1001.1
2024-04-25T13:25:53.088Z,1001.2
2024-04-25T13:28:56.415Z,1001.2
2024-04-25T13:31:53.335Z,1001.1
2024-04-25T13:34:54.461Z,1001.1
2024-04-25T13:37:53.083Z,1001.1
2024-04-25T13:40:53.353Z,1001.0
2024-04-25T13:43:54.063Z,1001.0
2024-04-25T13:46:53.168Z,1000.9
2024-04-25T13:49:56.230Z,1000.8
2024-04-25T13:52:53.102Z,1000.9
2024-04-25T13:55:53.547Z,1000.8
2024-04-25T13:58:53.041Z,1000.9
2024-04-25T14:01:57.063Z,1000.8
2024-04-25T14:04:53.313Z,1000.8
2024-04-25T14:07:56.962Z,1000.9
2024-04-25T14:10:53.186Z,1000.8
2024-04-25T14:13:53.698Z,1000.8
2024-04-25T14:16:53.799Z,1000.8
2024-04-25T14:19:53.630Z,1000.8
2024-04-25T14:22:53.236Z,1000.8
2024-04-25T14:25:55.718Z,1000.7
2024-04-25T14:28:53.108Z,1000.8
2024-04-25T14:31:54.353Z,1000.8
2024-04-25T14:34:54.328Z,1000.8
2024-04-25T14:37:53.433Z,1000.7
2024-04-25T14:40:53.549Z,1000.7
2024-04-25T14:43:58.223Z,1000.7
2024-04-25T14:46:53.229Z,1000.7
2024-04-25T14:49:53.978Z,1000.6
2024-04-25T14:52:53.120Z,1000.6
2024-04-25T14:55:53.268Z,1000.6
2024-04-25T14:58:53.139Z,1000.6
2024-04-25T15:01:53.713Z,1000.6
2024-04-25T15:04:53.361Z,1000.6
2024-04-25T15:07:53.017Z,1000.5
2024-04-25T15:10:53.103Z,1000.4
2024-04-25T15:13:53.459Z,1000.4
2024-04-25T15:19:53.455Z,1000.3
2024-04-25T15:22:54.997Z,1000.3
2024-04-25T15:25:53.131Z,1000.3
2024-04-25T15:28:53.046Z,1000.3
2024-04-25T15:31:53.550Z,1000.2
2024-04-25T15:34:54.307Z,1000.2
2024-04-25T15:37:53.338Z,1000.1
2024-04-25T15:40:53.360Z,1000.1
2024-04-25T15:43:53.155Z,1000.1
2024-04-25T15:46:56.080Z,1000.1
2024-04-25T15:49:54.465Z,1000.0
2024-04-25T15:52:53.197Z,1000.0
2024-04-25T15:55:53.189Z,1000.0
2024-04-25T15:58:53.080Z,999.9
2024-04-25T16:01:53.662Z,1000.0
2024-04-25T16:04:54.346Z,1000.0
2024-04-25T16:07:53.088Z,999.9
2024-04-25T16:10:53.266Z,999.9
2024-04-25T16:13:53.528Z,999.9
2024-04-25T16:16:56.225Z,1000.0
2024-04-25T16:19:53.815Z,1000.0
2024-04-25T16:22:53.294Z,1000.0
2024-04-25T16:25:53.212Z,1000.0
2024-04-25T16:28:54.724Z,999.9
2024-04-25T16:31:53.539Z,999.9
2024-04-25T16:34:54.508Z,1000.0
2024-04-25T16:37:53.119Z,999.9
2024-04-25T16:40:53.139Z,999.9
2024-04-25T16:43:53.202Z,999.9
2024-04-25T16:46:53.326Z,999.9
2024-04-25T16:49:53.935Z,999.9
2024-04-25T16:52:56.175Z,999.9
2024-04-25T16:55:53.044Z,1000.0
2024-04-25T16:58:54.528Z,1000.0
2024-04-25T17:01:53.625Z,1000.0
2024-04-25T17:04:54.419Z,1000.0
2024-04-25T17:07:53.292Z,999.9
2024-04-25T17:10:53.141Z,999.8
2024-04-25T17:13:53.327Z,999.8
2024-04-25T17:16:56.750Z,999.8
2024-04-25T17:19:53.351Z,999.8
2024-04-25T17:22:53.147Z,999.8
2024-04-25T17:25:53.142Z,999.8
2024-04-25T17:28:53.047Z,999.8
2024-04-25T17:31:53.275Z,999.7
2024-04-25T17:34:54.786Z,999.7
2024-04-25T17:37:53.248Z,999.7
2024-04-25T17:40:53.343Z,999.6
2024-04-25T17:43:53.349Z,999.6
2024-04-25T17:46:53.399Z,999.6
2024-04-25T17:49:54.398Z,999.5
2024-04-25T17:52:53.191Z,999.5
2024-04-25T17:55:53.305Z,999.5
2024-04-25T17:58:53.141Z,999.5
2024-04-25T18:01:53.716Z,999.4
2024-04-25T18:04:53.317Z,999.4
2024-04-25T18:07:53.436Z,999.3
2024-04-25T18:10:53.195Z,999.3
2024-04-25T18:13:53.240Z,999.3
2024-04-25T18:16:53.159Z,999.3
2024-04-25T18:19:55.251Z,999.2
2024-04-25T18:22:53.267Z,999.2
2024-04-25T18:25:53.090Z,999.2
2024-04-25T18:28:54.179Z,999.1
2024-04-25T18:31:53.324Z,999.1
2024-04-25T18:34:53.797Z,999.0
2024-04-25T18:37:53.208Z,999.1
2024-04-25T18:40:53.455Z,999.1
2024-04-25T18:43:53.290Z,999.1
2024-04-25T18:46:53.337Z,999.1
2024-04-25T18:49:55.773Z,999.1
2024-04-25T18:52:53.221Z,999.1
2024-04-25T18:55:53.310Z,999.1
2024-04-25T18:58:53.023Z,999.1
2024-04-25T19:01:53.279Z,999.1
2024-04-25T19:04:54.279Z,999.1
2024-04-25T19:07:53.102Z,999.1
2024-04-25T19:10:53.376Z,999.1
2024-04-25T19:13:54.464Z,999.1
2024-04-25T19:16:53.417Z,999.1
2024-04-25T19:19:53.507Z,999.1
2024-04-25T19:22:53.182Z,999.0
2024-04-25T19:25:55.408Z,999.1
2024-04-25T19:28:53.310Z,999.1
2024-04-25T19:31:53.537Z,999.1
2024-04-25T19:34:55.281Z,999.0
2024-04-25T19:37:53.320Z,999.0
2024-04-25T19:40:53.122Z,999.0
2024-04-25T19:43:53.099Z,999.0
2024-04-25T19:46:53.364Z,999.0
2024-04-25T19:49:55.258Z,999.0
2024-04-25T19:52:53.066Z,999.0
2024-04-25T19:55:53.113Z,999.1
2024-04-25T19:58:53.094Z,999.3
2024-04-25T20:01:54.140Z,999.4
2024-04-25T20:04:53.683Z,999.4
2024-04-25T20:07:53.268Z,999.4
2024-04-25T20:10:53.942Z,999.4
2024-04-25T20:13:53.582Z,999.4
2024-04-25T20:16:56.481Z,999.4
2024-04-25T20:19:53.627Z,999.4
2024-04-25T20:22:53.203Z,999.4
2024-04-25T20:25:56.660Z,999.4
2024-04-25T20:28:53.114Z,999.4
2024-04-25T20:31:53.365Z,999.5
2024-04-25T20:34:54.124Z,999.5
2024-04-25T20:37:56.739Z,999.5
2024-04-25T20:40:53.247Z,999.5
2024-04-25T20:43:53.305Z,999.5
2024-04-25T20:46:53.193Z,999.5
2024-04-25T20:49:56.397Z,999.5
2024-04-25T20:52:55.367Z,999.5
2024-04-25T20:55:53.190Z,999.5
2024-04-25T20:58:53.152Z,999.5
2024-04-25T21:01:53.688Z,999.5
2024-04-25T21:04:53.892Z,999.5
2024-04-25T21:07:53.514Z,999.4
2024-04-25T21:10:53.231Z,999.4
2024-04-25T21:13:53.214Z,999.3
2024-04-25T21:16:53.652Z,999.4
2024-04-25T21:19:53.912Z,999.4
2024-04-25T21:22:56.414Z,999.4
2024-04-25T21:28:57.560Z,999.4
2024-04-25T21:31:53.377Z,999.4
2024-04-25T21:34:54.055Z,999.4
2024-04-25T21:37:53.200Z,999.4
2024-04-25T21:40:53.239Z,999.3
2024-04-25T21:43:53.187Z,999.3
2024-04-25T21:46:53.426Z,999.2
2024-04-25T21:49:58.451Z,999.3
2024-04-25T21:52:53.234Z,999.3
2024-04-25T21:55:53.200Z,999.2
2024-04-25T21:58:53.309Z,999.2
2024-04-25T22:01:54.034Z,999.2
2024-04-25T22:04:53.903Z,999.2
2024-04-25T22:07:53.164Z,999.3
2024-04-25T22:10:53.413Z,999.3
2024-04-25T22:13:53.470Z,999.3
2024-04-25T22:16:53.550Z,999.3
2024-04-25T22:19:56.306Z,999.3
2024-04-25T22:22:53.341Z,999.3
2024-04-25T22:25:53.319Z,999.3
2024-04-25T22:28:53.187Z,999.3
2024-04-25T22:31:53.743Z,999.3
2024-04-25T22:34:54.080Z,999.3
2024-04-25T22:37:53.186Z,999.3
2024-04-25T22:40:53.664Z,999.3
2024-04-25T22:43:53.316Z,999.2
2024-04-25T22:47:03.039Z,999.2
2024-04-25T22:49:54.365Z,999.2
2024-04-25T22:52:53.492Z,999.2
2024-04-25T22:55:53.288Z,999.2
2024-04-25T22:58:53.122Z,999.1
2024-04-25T23:01:53.642Z,999.1
2024-04-25T23:04:53.400Z,999.1
2024-04-25T23:07:53.439Z,999.1
2024-04-25T23:10:54.522Z,999.1
2024-04-25T23:13:53.631Z,999.1
2024-04-25T23:16:54.190Z,999.0
2024-04-25T23:19:53.700Z,999.0
2024-04-25T23:22:53.203Z,999.1
2024-04-25T23:25:54.370Z,999.0
2024-04-25T23:28:53.436Z,999.0
2024-04-25T23:31:53.524Z,999.0
2024-04-25T23:34:54.215Z,999.0
2024-04-25T23:37:53.153Z,998.9
2024-04-25T23:40:53.370Z,998.9
2024-04-25T23:43:53.362Z,998.8
2024-04-25T23:46:53.422Z,998.8
2024-04-25T23:49:53.754Z,998.8
2024-04-25T23:52:53.216Z,998.8
2024-04-25T23:55:53.448Z,998.8
2024-04-25T23:58:53.475Z,998.8
